createdAt,value
2023-03-24T00:00:14.958Z,59.50
2023-03-24T00:03:02.909Z,59.58
2023-03-24T00:05:30.809Z,59.74
2023-03-24T00:08:02.164Z,60.17
2023-03-24T00:10:34.917Z,60.21
2023-03-24T00:13:02.815Z,60.65
2023-03-24T00:15:30.298Z,60.64
2023-03-24T00:17:58.570Z,60.74
2023-03-24T00:20:26.489Z,60.80
2023-03-24T00:22:58.810Z,60.82
2023-03-24T00:25:36.605Z,61.18
2023-03-24T00:28:05.943Z,61.65
2023-03-24T00:30:33.782Z,61.78
2023-03-24T00:33:02.151Z,62.07
2023-03-24T00:35:29.192Z,62.30
2023-03-24T00:37:56.371Z,62.24
2023-03-24T00:40:23.612Z,62.59
2023-03-24T00:42:51.203Z,62.98
2023-03-24T00:45:23.381Z,63.08
2023-03-24T00:47:54.651Z,63.31
2023-03-24T00:50:27.160Z,63.65
2023-03-24T00:52:56.126Z,63.93
2023-03-24T00:55:23.345Z,64.00
2023-03-24T00:57:51.122Z,64.57
2023-03-24T01:00:21.614Z,64.90
2023-03-24T01:02:53.980Z,65.29
2023-03-24T01:05:28.084Z,65.82
2023-03-24T01:08:03.160Z,65.89
2023-03-24T01:10:42.652Z,65.79
2023-03-24T01:13:10.464Z,65.89
2023-03-24T01:15:38.474Z,65.90
2023-03-24T01:18:06.558Z,65.70
2023-03-24T01:20:33.681Z,65.74
2023-03-24T01:23:02.790Z,65.33
2023-03-24T01:25:30.611Z,64.92
2023-03-24T01:27:58.415Z,65.28
2023-03-24T01:30:27.766Z,65.45
2023-03-24T01:32:55.932Z,65.55
2023-03-24T01:35:27.717Z,65.85
2023-03-24T01:37:56.875Z,66.19
2023-03-24T01:40:30.482Z,66.65
2023-03-24T01:42:58.953Z,66.81
2023-03-24T01:45:51.070Z,67.27
2023-03-24T01:48:26.923Z,67.62
2023-03-24T01:51:04.620Z,68.09
2023-03-24T01:53:34.444Z,68.59
2023-03-24T01:56:03.213Z,68.78
2023-03-24T01:58:34.471Z,69.13
2023-03-24T02:01:01.574Z,69.37
2023-03-24T02:03:34.158Z,69.70
2023-03-24T02:06:02.692Z,69.94
2023-03-24T02:08:52.438Z,70.42
2023-03-24T02:11:21.305Z,70.55
2023-03-24T02:13:48.573Z,71.02
2023-03-24T02:16:39.278Z,71.35
2023-03-24T02:19:38.394Z,71.76
2023-03-24T02:22:46.912Z,72.19
2023-03-24T02:25:32.882Z,72.06
2023-03-24T02:28:18.399Z,72.30
2023-03-24T02:30:57.751Z,72.46
2023-03-24T02:33:59.891Z,72.63
2023-03-24T02:36:55.528Z,72.86
2023-03-24T02:39:40.690Z,73.16
2023-03-24T02:42:22.970Z,73.30
2023-03-24T02:45:01.800Z,73.50
2023-03-24T02:47:34.396Z,73.73
2023-03-24T02:50:27.330Z,73.83
2023-03-24T02:53:19.358Z,73.81
2023-03-24T02:56:18.297Z,73.66
2023-03-24T02:59:44.041Z,74.06
2023-03-24T03:02:19.981Z,73.98
2023-03-24T03:04:54.113Z,74.20
2023-03-24T03:07:27.468Z,74.50
2023-03-24T03:10:25.662Z,74.82
2023-03-24T03:12:57.036Z,75.26
2023-03-24T03:15:30.673Z,75.46
2023-03-24T03:18:09.339Z,75.55
2023-03-24T03:20:50.698Z,75.54
2023-03-24T03:23:23.596Z,75.50
2023-03-24T03:25:56.168Z,75.35
2023-03-24T03:28:29.981Z,75.19
2023-03-24T03:31:01.827Z,74.96
2023-03-24T03:33:46.787Z,74.99
2023-03-24T03:36:36.277Z,74.45
2023-03-24T03:39:12.020Z,74.55
2023-03-24T03:41:40.471Z,74.72
2023-03-24T03:44:07.582Z,74.63
2023-03-24T03:46:36.466Z,74.51
2023-03-24T03:49:06.565Z,74.52
2023-03-24T03:51:34.971Z,74.71
2023-03-24T03:54:05.697Z,74.89
2023-03-24T03:56:36.006Z,74.97
2023-03-24T03:59:04.283Z,74.94
2023-03-24T04:01:37.380Z,75.16
2023-03-24T04:04:20.392Z,75.45
2023-03-24T04:06:59.840Z,75.76
2023-03-24T04:09:45.918Z,76.19
2023-03-24T04:12:28.907Z,76.60
2023-03-24T04:15:26.008Z,76.97
2023-03-24T04:18:15.804Z,77.48
2023-03-24T04:21:10.310Z,77.81
2023-03-24T04:23:50.592Z,78.27
2023-03-24T04:26:54.798Z,78.88
2023-03-24T04:29:31.626Z,79.77
2023-03-24T04:31:59.247Z,80.44
2023-03-24T04:34:36.217Z,80.97
2023-03-24T04:37:12.675Z,81.82
2023-03-24T04:39:45.631Z,82.41
2023-03-24T04:42:37.934Z,83.09
2023-03-24T04:45:07.723Z,83.29
2023-03-24T04:47:43.260Z,83.74
2023-03-24T04:50:11.827Z,84.01
2023-03-24T04:52:41.387Z,84.02
2023-03-24T04:55:43.857Z,84.19
2023-03-24T04:58:11.010Z,84.25
2023-03-24T05:00:38.235Z,84.11
2023-03-24T05:03:05.590Z,83.55
2023-03-24T05:05:33.139Z,83.54
2023-03-24T05:08:00.332Z,83.04
2023-03-24T05:10:27.521Z,81.79
2023-03-24T05:12:54.416Z,80.98
2023-03-24T05:15:21.776Z,80.66
2023-03-24T05:17:48.926Z,80.02
2023-03-24T05:20:16.568Z,78.99
2023-03-24T05:22:43.491Z,78.25
2023-03-24T05:25:10.989Z,77.67
2023-03-24T05:27:38.301Z,77.98
2023-03-24T05:30:06.746Z,77.15
2023-03-24T05:32:33.668Z,76.35
2023-03-24T05:35:01.252Z,75.85
2023-03-24T05:37:28.241Z,75.29
2023-03-24T05:39:56.083Z,75.39
2023-03-24T05:42:23.216Z,74.95
2023-03-24T05:44:50.495Z,74.32
2023-03-24T05:47:20.065Z,74.46
2023-03-24T05:49:47.346Z,73.88
2023-03-24T05:52:16.444Z,73.82
2023-03-24T05:54:43.728Z,73.05
2023-03-24T05:57:16.219Z,72.51
2023-03-24T05:59:43.443Z,71.66
2023-03-24T06:02:10.723Z,72.18
2023-03-24T06:04:38.320Z,70.93
2023-03-24T06:07:05.352Z,69.83
2023-03-24T06:09:37.595Z,70.65
2023-03-24T06:12:06.297Z,69.47
2023-03-24T06:14:33.968Z,69.78
2023-03-24T06:17:01.114Z,69.58
2023-03-24T06:19:30.942Z,69.99
2023-03-24T06:22:02.815Z,69.27
2023-03-24T06:24:30.715Z,69.71
2023-03-24T06:27:02.398Z,68.96
2023-03-24T06:29:31.246Z,68.58
2023-03-24T06:31:58.171Z,68.07
2023-03-24T06:34:25.504Z,67.54
2023-03-24T06:36:53.026Z,67.88
2023-03-24T06:39:20.277Z,66.88
2023-03-24T06:41:47.565Z,66.55
2023-03-24T06:44:14.740Z,67.61
2023-03-24T06:46:42.075Z,66.55
2023-03-24T06:49:09.324Z,66.21
2023-03-24T06:51:36.365Z,65.07
2023-03-24T06:54:03.801Z,64.95
2023-03-24T06:56:30.838Z,65.06
2023-03-24T06:58:58.039Z,64.25
2023-03-24T07:01:25.045Z,64.50
2023-03-24T07:03:52.349Z,63.60
2023-03-24T07:06:20.767Z,64.37
2023-03-24T07:08:47.963Z,64.52
2023-03-24T07:11:15.587Z,64.95
2023-03-24T07:13:42.784Z,65.14
2023-03-24T07:16:09.754Z,64.14
2023-03-24T07:18:37.122Z,64.90
2023-03-24T07:21:04.255Z,65.06
2023-03-24T07:23:32.693Z,64.54
2023-03-24T07:26:00.046Z,64.25
2023-03-24T07:28:27.324Z,64.99
2023-03-24T07:30:55.448Z,65.44
2023-03-24T07:33:25.040Z,64.08
2023-03-24T07:35:57.281Z,63.46
2023-03-24T07:38:25.999Z,62.42
2023-03-24T07:40:53.118Z,62.29
2023-03-24T07:43:20.425Z,60.62
2023-03-24T07:45:47.634Z,61.42
2023-03-24T07:48:15.531Z,61.07
2023-03-24T07:50:42.841Z,61.96
2023-03-24T07:53:10.066Z,60.54
2023-03-24T07:55:40.130Z,59.65
2023-03-24T07:58:07.629Z,57.71
2023-03-24T08:00:34.671Z,59.85
2023-03-24T08:03:02.168Z,58.02
2023-03-24T08:05:30.797Z,57.92
2023-03-24T08:07:58.618Z,55.09
2023-03-24T08:10:28.569Z,54.71
2023-03-24T08:12:56.889Z,55.75
2023-03-24T08:15:24.612Z,55.51
2023-03-24T08:17:52.000Z,55.82
2023-03-24T08:20:21.409Z,56.75
2023-03-24T08:22:50.066Z,56.64
2023-03-24T08:25:19.033Z,55.14
2023-03-24T08:27:47.302Z,55.48
2023-03-24T08:30:26.497Z,55.33
2023-03-24T08:32:59.515Z,55.56
2023-03-24T08:35:29.524Z,55.99
2023-03-24T08:37:56.873Z,54.94
2023-03-24T08:40:24.457Z,54.96
2023-03-24T08:42:54.983Z,52.46
2023-03-24T08:45:24.527Z,51.98
2023-03-24T08:47:52.646Z,52.52
2023-03-24T08:50:23.923Z,53.14
2023-03-24T08:52:51.182Z,52.32
2023-03-24T08:55:19.782Z,51.19
2023-03-24T08:57:47.833Z,50.87
2023-03-24T09:00:16.712Z,49.77
2023-03-24T09:02:54.029Z,49.26
2023-03-24T09:05:36.546Z,48.86
2023-03-24T09:08:08.536Z,47.73
2023-03-24T09:10:35.781Z,49.52
2023-03-24T09:13:04.487Z,50.48
2023-03-24T09:15:31.783Z,49.19
2023-03-24T09:17:59.250Z,50.49
2023-03-24T09:20:26.506Z,48.47
2023-03-24T09:22:53.707Z,46.90
2023-03-24T09:25:21.604Z,45.97
2023-03-24T09:27:49.136Z,46.96
2023-03-24T09:30:17.715Z,45.12
2023-03-24T09:32:46.228Z,45.28
2023-03-24T09:35:13.747Z,45.96
2023-03-24T09:37:43.031Z,46.91
2023-03-24T09:40:20.577Z,46.96
2023-03-24T09:43:11.135Z,46.33
2023-03-24T09:46:02.216Z,47.39
2023-03-24T09:48:39.506Z,47.40
2023-03-24T09:51:21.804Z,47.19
2023-03-24T09:53:54.817Z,47.46
2023-03-24T09:56:23.652Z,46.50
2023-03-24T09:58:59.348Z,46.56
2023-03-24T10:01:27.200Z,48.54
2023-03-24T10:03:58.988Z,47.48
2023-03-24T10:06:31.051Z,47.25
2023-03-24T10:09:16.248Z,48.13
2023-03-24T10:12:02.901Z,47.41
2023-03-24T10:14:51.754Z,46.41
2023-03-24T10:17:33.035Z,46.90
2023-03-24T10:20:30.921Z,46.03
2023-03-24T10:23:04.445Z,44.20
2023-03-24T10:25:50.463Z,44.73
2023-03-24T10:28:20.945Z,42.85
2023-03-24T10:30:51.518Z,42.52
2023-03-24T10:33:18.472Z,41.63
2023-03-24T10:35:57.136Z,42.32
2023-03-24T10:38:24.426Z,41.11
2023-03-24T10:40:54.344Z,39.94
2023-03-24T10:43:23.297Z,39.37
2023-03-24T10:45:53.697Z,38.91
2023-03-24T10:48:36.043Z,39.37
2023-03-24T10:51:03.657Z,40.03
2023-03-24T10:53:30.636Z,38.79
2023-03-24T10:55:58.109Z,39.99
2023-03-24T10:58:37.608Z,39.90
2023-03-24T11:01:21.438Z,40.09
2023-03-24T11:03:49.965Z,41.53
2023-03-24T11:06:19.648Z,42.26
2023-03-24T11:08:46.790Z,44.34
2023-03-24T11:11:35.034Z,43.13
2023-03-24T11:14:03.267Z,42.17
2023-03-24T11:16:35.990Z,43.47
2023-03-24T11:19:18.645Z,41.85
2023-03-24T11:21:48.177Z,42.25
2023-03-24T11:24:20.259Z,41.65
2023-03-24T11:27:02.167Z,41.94
2023-03-24T11:29:32.807Z,42.71
2023-03-24T11:32:11.265Z,41.29
2023-03-24T11:34:44.762Z,41.28
2023-03-24T11:37:20.038Z,40.28
2023-03-24T11:40:15.465Z,40.45
2023-03-24T11:42:52.264Z,40.38
2023-03-24T11:45:28.638Z,41.27
2023-03-24T11:47:58.577Z,42.34
2023-03-24T11:50:38.824Z,39.48
2023-03-24T11:53:21.470Z,38.30
2023-03-24T11:55:59.659Z,38.18
2023-03-24T11:58:50.465Z,39.13
2023-03-24T12:01:25.626Z,38.28
2023-03-24T12:04:23.216Z,39.34
2023-03-24T12:07:07.622Z,37.79
2023-03-24T12:09:53.386Z,37.36
2023-03-24T12:12:36.300Z,38.02
2023-03-24T12:15:26.652Z,38.31
2023-03-24T12:18:16.470Z,37.59
2023-03-24T12:21:05.182Z,37.92
2023-03-24T12:23:59.345Z,39.54
2023-03-24T12:26:34.613Z,38.24
2023-03-24T12:29:15.508Z,36.72
2023-03-24T12:32:16.567Z,37.04
2023-03-24T12:35:17.202Z,37.06
2023-03-24T12:38:06.155Z,37.82
2023-03-24T12:40:56.113Z,38.42
2023-03-24T12:44:22.038Z,38.93
2023-03-24T12:47:03.065Z,39.66
2023-03-24T12:50:02.322Z,40.70
2023-03-24T12:53:23.159Z,40.06
2023-03-24T12:55:59.421Z,41.25
2023-03-24T12:58:58.054Z,41.81
2023-03-24T13:01:50.298Z,40.57
2023-03-24T13:04:32.564Z,40.45
2023-03-24T13:07:11.588Z,40.90
2023-03-24T13:10:06.817Z,40.13
2023-03-24T13:12:54.186Z,40.96
2023-03-24T13:15:27.583Z,40.66
2023-03-24T13:18:09.823Z,41.34
2023-03-24T13:20:46.738Z,41.13
2023-03-24T13:23:23.152Z,41.30
2023-03-24T13:25:56.358Z,41.41
2023-03-24T13:28:31.329Z,42.20
2023-03-24T13:31:02.695Z,42.41
2023-03-24T13:33:32.376Z,41.81
2023-03-24T13:36:17.418Z,41.82
2023-03-24T13:38:53.146Z,41.45
2023-03-24T13:41:29.058Z,41.82
2023-03-24T13:44:02.366Z,42.21
2023-03-24T13:46:29.706Z,41.58
2023-03-24T13:48:58.750Z,42.46
2023-03-24T13:51:33.046Z,41.91
2023-03-24T13:54:22.617Z,41.59
2023-03-24T13:57:00.652Z,41.48
2023-03-24T13:59:32.144Z,41.58
2023-03-24T14:02:17.757Z,41.47
2023-03-24T14:04:47.659Z,41.47
2023-03-24T14:07:32.609Z,41.51
2023-03-24T14:10:03.175Z,40.75
2023-03-24T14:12:32.861Z,40.03
2023-03-24T14:15:15.073Z,39.26
2023-03-24T14:17:53.768Z,38.88
2023-03-24T14:20:38.568Z,39.71
2023-03-24T14:23:05.753Z,39.50
2023-03-24T14:25:33.963Z,39.35
2023-03-24T14:28:21.283Z,39.41
2023-03-24T14:31:17.706Z,40.06
2023-03-24T14:33:54.162Z,39.94
2023-03-24T14:36:35.254Z,39.66
2023-03-24T14:39:14.537Z,40.01
2023-03-24T14:41:44.351Z,41.08
2023-03-24T14:44:11.617Z,40.86
2023-03-24T14:46:39.865Z,40.67
2023-03-24T14:49:29.364Z,40.60
2023-03-24T14:52:12.913Z,40.30
2023-03-24T14:55:02.260Z,40.75
2023-03-24T14:57:34.473Z,41.57
2023-03-24T15:00:22.632Z,41.85
2023-03-24T15:02:52.718Z,41.87
2023-03-24T15:05:31.868Z,42.51
2023-03-24T15:08:33.145Z,43.06
2023-03-24T15:11:04.613Z,43.09
2023-03-24T15:13:42.702Z,43.48
2023-03-24T15:16:12.758Z,43.42
2023-03-24T15:21:41.244Z,44.25
2023-03-24T15:24:23.747Z,44.67
2023-03-24T15:26:54.689Z,44.97
2023-03-24T15:29:22.364Z,45.09
2023-03-24T15:31:50.441Z,45.17
2023-03-24T15:34:40.977Z,45.04
2023-03-24T15:37:32.536Z,45.85
2023-03-24T15:40:14.766Z,45.40
2023-03-24T15:42:46.078Z,45.88
2023-03-24T15:45:28.322Z,45.58
2023-03-24T15:47:56.244Z,45.75
2023-03-24T15:50:41.551Z,45.47
2023-03-24T15:53:14.377Z,46.18
2023-03-24T15:55:43.543Z,45.91
2023-03-24T15:58:28.569Z,45.92
2023-03-24T16:01:00.080Z,46.34
2023-03-24T16:03:27.830Z,46.59
2023-03-24T16:05:56.880Z,47.32
2023-03-24T16:08:39.320Z,46.49
2023-03-24T16:11:11.963Z,46.82
2023-03-24T16:13:44.970Z,46.72
2023-03-24T16:16:15.165Z,46.52
2023-03-24T16:18:44.975Z,46.87
2023-03-24T16:21:17.179Z,46.41
2023-03-24T16:23:45.478Z,46.54
2023-03-24T16:26:14.810Z,47.33
2023-03-24T16:28:41.818Z,47.56
2023-03-24T16:31:35.677Z,47.55
2023-03-24T16:34:02.588Z,47.25
2023-03-24T16:36:30.270Z,47.42
2023-03-24T16:38:59.446Z,47.53
2023-03-24T16:41:26.751Z,47.35
2023-03-24T16:43:54.178Z,47.43
2023-03-24T16:46:31.445Z,47.39
2023-03-24T16:48:58.892Z,47.27
2023-03-24T16:51:27.249Z,47.21
2023-03-24T16:53:54.115Z,47.38
2023-03-24T16:56:22.898Z,47.51
2023-03-24T16:58:53.295Z,47.68
2023-03-24T17:01:35.819Z,47.47
2023-03-24T17:04:10.371Z,48.04
2023-03-24T17:06:39.922Z,47.39
2023-03-24T17:09:08.289Z,47.81
2023-03-24T17:11:48.840Z,47.09
2023-03-24T17:14:15.940Z,46.97
2023-03-24T17:16:45.264Z,47.42
2023-03-24T17:19:17.411Z,47.54
2023-03-24T17:21:50.332Z,47.88
2023-03-24T17:24:17.789Z,47.84
2023-03-24T17:26:44.976Z,47.73
2023-03-24T17:29:13.659Z,47.86
2023-03-24T17:31:43.169Z,48.18
2023-03-24T17:36:44.658Z,48.80
2023-03-24T17:39:16.760Z,48.91
2023-03-24T17:41:44.377Z,49.25
2023-03-24T17:44:11.328Z,48.67
2023-03-24T17:46:38.700Z,49.14
2023-03-24T17:49:05.768Z,49.24
2023-03-24T17:51:33.219Z,49.57
2023-03-24T17:54:00.821Z,49.39
2023-03-24T17:56:28.013Z,49.47
2023-03-24T17:58:56.424Z,49.69
2023-03-24T18:01:23.847Z,49.87
2023-03-24T18:03:50.882Z,49.93
2023-03-24T18:06:18.246Z,49.52
2023-03-24T18:08:45.330Z,50.84
2023-03-24T18:11:14.851Z,50.28
2023-03-24T18:13:42.558Z,50.46
2023-03-24T18:16:20.842Z,51.18
2023-03-24T18:18:49.285Z,50.78
2023-03-24T18:21:16.533Z,50.73
2023-03-24T18:23:44.015Z,51.43
2023-03-24T18:26:11.286Z,51.44
2023-03-24T18:28:39.119Z,51.71
2023-03-24T18:31:12.848Z,51.69
2023-03-24T18:33:42.798Z,51.52
2023-03-24T18:36:10.630Z,51.85
2023-03-24T18:38:37.727Z,52.19
2023-03-24T18:41:07.471Z,52.27
2023-03-24T18:43:37.847Z,52.71
2023-03-24T18:46:09.498Z,53.20
2023-03-24T18:48:41.929Z,52.70
2023-03-24T18:51:10.304Z,53.03
2023-03-24T18:53:37.535Z,53.00
2023-03-24T18:56:06.081Z,53.06
2023-03-24T18:58:33.857Z,53.41
2023-03-24T19:01:07.066Z,53.97
2023-03-24T19:03:35.838Z,54.88
2023-03-24T19:06:07.044Z,55.81
2023-03-24T19:08:38.004Z,55.48
2023-03-24T19:11:05.731Z,56.01
2023-03-24T19:13:33.095Z,56.50
2023-03-24T19:16:00.460Z,56.71
2023-03-24T19:18:27.433Z,56.56
2023-03-24T19:20:57.359Z,56.75
2023-03-24T19:23:25.779Z,57.05
2023-03-24T19:25:56.263Z,57.97
2023-03-24T19:28:25.039Z,58.34
2023-03-24T19:30:53.425Z,58.94
2023-03-24T19:33:20.590Z,58.82
2023-03-24T19:35:48.779Z,59.04
2023-03-24T19:38:17.152Z,60.30
2023-03-24T19:40:45.068Z,60.25
2023-03-24T19:43:12.115Z,60.37
2023-03-24T19:45:42.973Z,59.87
2023-03-24T19:48:10.902Z,59.91
2023-03-24T19:50:38.370Z,60.47
2023-03-24T19:53:05.609Z,60.17
2023-03-24T19:55:33.620Z,59.64
2023-03-24T19:58:00.635Z,59.97
2023-03-24T20:00:28.343Z,59.60
2023-03-24T20:02:55.411Z,59.96
2023-03-24T20:05:22.718Z,59.27
2023-03-24T20:07:49.735Z,59.38
2023-03-24T20:10:17.136Z,59.21
2023-03-24T20:12:44.066Z,59.03
2023-03-24T20:15:11.627Z,58.71
2023-03-24T20:17:40.647Z,58.38
2023-03-24T20:20:08.732Z,58.46
2023-03-24T20:22:36.342Z,57.98
2023-03-24T20:25:04.958Z,58.32
2023-03-24T20:27:32.170Z,58.43
2023-03-24T20:29:59.399Z,57.86
2023-03-24T20:32:26.357Z,58.57
2023-03-24T20:34:54.420Z,58.94
2023-03-24T20:37:21.318Z,58.34
2023-03-24T20:39:48.561Z,58.56
2023-03-24T20:42:17.546Z,58.59
2023-03-24T20:44:44.537Z,58.50
2023-03-24T20:47:11.557Z,58.48
2023-03-24T20:49:38.688Z,58.18
2023-03-24T20:52:05.706Z,58.52
2023-03-24T20:54:32.890Z,58.38
2023-03-24T20:56:59.787Z,58.11
2023-03-24T20:59:27.044Z,58.71
2023-03-24T21:01:53.954Z,58.60
2023-03-24T21:04:21.225Z,58.72
2023-03-24T21:06:48.072Z,58.88
2023-03-24T21:09:15.520Z,58.81
2023-03-24T21:11:42.424Z,59.14
2023-03-24T21:14:09.627Z,58.94
2023-03-24T21:16:37.516Z,59.21
2023-03-24T21:19:05.105Z,59.57
2023-03-24T21:21:32.411Z,59.49
2023-03-24T21:24:00.577Z,60.04
2023-03-24T21:26:27.980Z,60.41
2023-03-24T21:28:57.967Z,60.86
2023-03-24T21:31:27.526Z,61.06
2023-03-24T21:33:56.507Z,61.70
2023-03-24T21:36:25.045Z,62.11
2023-03-24T21:38:54.055Z,62.16
2023-03-24T21:41:22.377Z,62.89
2023-03-24T21:43:54.336Z,62.64
2023-03-24T21:46:22.353Z,62.57
2023-03-24T21:48:51.943Z,63.89
2023-03-24T21:51:20.226Z,64.73
2023-03-24T21:53:47.881Z,65.01
2023-03-24T21:56:14.842Z,65.12
2023-03-24T21:58:42.281Z,65.62
2023-03-24T22:01:09.814Z,66.59
2023-03-24T22:03:37.317Z,66.88
2023-03-24T22:06:06.094Z,67.89
2023-03-24T22:08:33.292Z,69.67
2023-03-24T22:11:04.178Z,70.10
2023-03-24T22:13:33.471Z,70.99
2023-03-24T22:16:03.103Z,71.83
2023-03-24T22:18:33.036Z,73.11
2023-03-24T22:21:08.384Z,73.54
2023-03-24T22:23:39.706Z,74.24
2023-03-24T22:26:10.468Z,74.38
2023-03-24T22:28:38.358Z,75.07
2023-03-24T22:31:11.572Z,74.88
2023-03-24T22:33:38.877Z,75.25
2023-03-24T22:36:06.886Z,75.37
2023-03-24T22:38:34.620Z,75.41
2023-03-24T22:41:07.338Z,75.29
2023-03-24T22:43:35.749Z,75.09
2023-03-24T22:46:03.635Z,74.93
2023-03-24T22:48:31.428Z,75.53
2023-03-24T22:50:58.305Z,76.17
2023-03-24T22:53:25.660Z,76.14
2023-03-24T22:55:53.050Z,76.63
2023-03-24T22:58:20.539Z,76.57
2023-03-24T23:00:50.071Z,77.82
2023-03-24T23:03:17.451Z,78.83
2023-03-24T23:05:46.176Z,79.49
2023-03-24T23:08:15.577Z,81.18
2023-03-24T23:10:44.847Z,81.94
2023-03-24T23:13:13.378Z,83.09
2023-03-24T23:15:42.790Z,84.42
2023-03-24T23:18:10.876Z,85.27
2023-03-24T23:20:38.026Z,85.91
2023-03-24T23:23:06.827Z,86.70
2023-03-24T23:25:40.390Z,87.94
2023-03-24T23:28:07.252Z,88.91
2023-03-24T23:30:34.469Z,89.88
2023-03-24T23:33:03.634Z,90.82
2023-03-24T23:35:33.310Z,92.11
2023-03-24T23:38:00.112Z,93.75
2023-03-24T23:40:28.452Z,95.04
2023-03-24T23:42:55.334Z,95.94
2023-03-24T23:45:22.760Z,96.77
2023-03-24T23:47:51.879Z,97.65
2023-03-24T23:50:20.621Z,98.06
2023-03-24T23:52:48.061Z,98.41
2023-03-24T23:55:17.974Z,98.88
2023-03-24T23:57:46.885Z,99.13
